Axantha II — CQKN — position and weather

sailwx.info

Track history (hours):
 
Tides and Currents Weather Stations Pressure Air Temp Water Temp Dewpoint Dewpoint Depression Visibility Wind Speed Wind Dir Waves Ship Positions

Axantha II

Last reported at 2014-Aug-29 07:33 UTC. Time now 2014-Sep-03 00:10 UTC.
Position N 43°36' E 007°16'.

Length 43 m; draft 2.8 m.

Type: Cargo ship. MMSI: 255804580.

Date/timePositionNaut miles runAvg speedWind from/ knotsBaromVisibWave heightAir tempDewpointWater temp
2014-Aug-29 07:33N 43°36' E 007°16'6 6.0
2014-Aug-29 06:33N 43°34' E 007°08'0 0.0
2014-Aug-29 05:33N 43°34' E 007°08'0 0.0
2014-Aug-29 04:33N 43°34' E 007°08'0 0.0
2014-Aug-29 03:33N 43°34' E 007°08'0 0.0
2014-Aug-29 02:33N 43°34' E 007°08'0 0.0
2014-Aug-29 01:33N 43°34' E 007°09'0 0.0
2014-Aug-29 00:33N 43°34' E 007°09'0 0.0
2014-Aug-28 23:33N 43°34' E 007°09'0 0.0
2014-Aug-28 22:33N 43°34' E 007°09'0 0.0
2014-Aug-28 21:33N 43°34' E 007°09'0 0.0
2014-Aug-28 20:33N 43°34' E 007°09'0 0.0
2014-Aug-28 19:33N 43°34' E 007°09'0 0.0
2014-Aug-28 18:33N 43°34' E 007°08'10 9.7
2014-Aug-28 17:33N 43°26' E 007°01'1212.3
2014-Aug-28 16:33N 43°16' E 006°51'3511.5
2014-Aug-28 13:33N 42°58' E 006°10'1212.3
2014-Aug-28 12:33N 43°05' E 005°56'2 0.8
2014-Aug-28 10:15N 43°06' E 005°53'0 0.0
2014-Aug-28 09:28N 43°06' E 005°53'0 0.0
2014-Aug-28 08:27N 43°06' E 005°53'0 0.0
2014-Aug-28 07:33N 43°06' E 005°53'4 3.8
2014-Aug-28 06:33N 43°05' E 005°58'9 9.4
2014-Aug-28 05:33N 43°03' E 006°11'1 1.1
2014-Aug-28 04:33N 43°04' E 006°10'0 0.0
2014-Aug-28 03:33N 43°04' E 006°10'0 0.0
2014-Aug-28 02:30N 43°04' E 006°10'0 0.0
2014-Aug-28 01:33N 43°04' E 006°10'0 0.0
2014-Aug-28 00:33N 43°04' E 006°10'0 0.0
2014-Aug-27 23:33N 43°04' E 006°10'0 0.0
2014-Aug-27 22:33N 43°04' E 006°10'0 0.0
2014-Aug-27 21:33N 43°04' E 006°10'0 0.0
2014-Aug-27 20:30N 43°04' E 006°10'0 0.0
2014-Aug-27 19:33N 43°04' E 006°10'0 0.0
2014-Aug-27 18:33N 43°04' E 006°10'0 0.0
2014-Aug-27 17:21N 43°04' E 006°10'0 0.0
2014-Aug-27 16:33N 43°04' E 006°10'0 0.0
2014-Aug-27 15:33N 43°04' E 006°10'0 0.0
2014-Aug-27 14:33N 43°04' E 006°10'0 0.0
2014-Aug-27 13:33N 43°04' E 006°10'0 0.0
2014-Aug-27 12:34N 43°04' E 006°10'0 0.0
2014-Aug-27 11:33N 43°04' E 006°10'0 0.0
2014-Aug-27 10:33N 43°04' E 006°10'0 0.0
2014-Aug-27 09:33N 43°04' E 006°10'0 0.0
2014-Aug-27 08:33N 43°04' E 006°10'0 0.0
2014-Aug-27 07:33N 43°04' E 006°10'0 0.0
2014-Aug-27 06:33N 43°04' E 006°10'0 0.0
2014-Aug-27 05:33N 43°04' E 006°10'0 0.0
2014-Aug-27 04:33N 43°04' E 006°10'0 0.0
2014-Aug-27 03:33N 43°04' E 006°10'0 0.0
2014-Aug-27 02:33N 43°04' E 006°10'0 0.0
2014-Aug-27 01:33N 43°04' E 006°10'8 7.7
2014-Aug-27 00:33N 43°00' E 006°19'  
Track history (hours):
 
Tides and Currents Weather Stations Pressure Air Temp Water Temp Dewpoint Dewpoint Depression Visibility Wind Speed Wind Dir Waves Ship Positions

Axantha II

Last reported at 2014-Aug-29 07:33 UTC. Time now 2014-Sep-03 00:10 UTC.
Position N 43°36' E 007°16'.

Length 43 m; draft 2.8 m.

Type: Cargo ship. MMSI: 255804580.

Date/timePositionNaut miles runAvg speedWind from/ knotsBaromVisibWave heightAir tempDewpointWater temp
2014-Aug-29 07:33N 43°36' E 007°16'6 6.0
2014-Aug-29 06:33N 43°34' E 007°08'0 0.0
2014-Aug-29 05:33N 43°34' E 007°08'0 0.0
2014-Aug-29 04:33N 43°34' E 007°08'0 0.0
2014-Aug-29 03:33N 43°34' E 007°08'0 0.0
2014-Aug-29 02:33N 43°34' E 007°08'0 0.0
2014-Aug-29 01:33N 43°34' E 007°09'0 0.0
2014-Aug-29 00:33N 43°34' E 007°09'0 0.0
2014-Aug-28 23:33N 43°34' E 007°09'0 0.0
2014-Aug-28 22:33N 43°34' E 007°09'0 0.0
2014-Aug-28 21:33N 43°34' E 007°09'0 0.0
2014-Aug-28 20:33N 43°34' E 007°09'0 0.0
2014-Aug-28 19:33N 43°34' E 007°09'0 0.0
2014-Aug-28 18:33N 43°34' E 007°08'10 9.7
2014-Aug-28 17:33N 43°26' E 007°01'1212.3
2014-Aug-28 16:33N 43°16' E 006°51'3511.5
2014-Aug-28 13:33N 42°58' E 006°10'1212.3
2014-Aug-28 12:33N 43°05' E 005°56'2 0.8
2014-Aug-28 10:15N 43°06' E 005°53'0 0.0
2014-Aug-28 09:28N 43°06' E 005°53'0 0.0
2014-Aug-28 08:27N 43°06' E 005°53'0 0.0
2014-Aug-28 07:33N 43°06' E 005°53'4 3.8
2014-Aug-28 06:33N 43°05' E 005°58'9 9.4
2014-Aug-28 05:33N 43°03' E 006°11'1 1.1
2014-Aug-28 04:33N 43°04' E 006°10'0 0.0
2014-Aug-28 03:33N 43°04' E 006°10'0 0.0
2014-Aug-28 02:30N 43°04' E 006°10'0 0.0
2014-Aug-28 01:33N 43°04' E 006°10'0 0.0
2014-Aug-28 00:33N 43°04' E 006°10'0 0.0
2014-Aug-27 23:33N 43°04' E 006°10'0 0.0
2014-Aug-27 22:33N 43°04' E 006°10'0 0.0
2014-Aug-27 21:33N 43°04' E 006°10'0 0.0
2014-Aug-27 20:30N 43°04' E 006°10'0 0.0
2014-Aug-27 19:33N 43°04' E 006°10'0 0.0
2014-Aug-27 18:33N 43°04' E 006°10'0 0.0
2014-Aug-27 17:21N 43°04' E 006°10'0 0.0
2014-Aug-27 16:33N 43°04' E 006°10'0 0.0
2014-Aug-27 15:33N 43°04' E 006°10'0 0.0
2014-Aug-27 14:33N 43°04' E 006°10'0 0.0
2014-Aug-27 13:33N 43°04' E 006°10'0 0.0
2014-Aug-27 12:34N 43°04' E 006°10'0 0.0
2014-Aug-27 11:33N 43°04' E 006°10'0 0.0
2014-Aug-27 10:33N 43°04' E 006°10'0 0.0
2014-Aug-27 09:33N 43°04' E 006°10'0 0.0
2014-Aug-27 08:33N 43°04' E 006°10'0 0.0
2014-Aug-27 07:33N 43°04' E 006°10'0 0.0
2014-Aug-27 06:33N 43°04' E 006°10'0 0.0
2014-Aug-27 05:33N 43°04' E 006°10'0 0.0
2014-Aug-27 04:33N 43°04' E 006°10'0 0.0
2014-Aug-27 03:33N 43°04' E 006°10'0 0.0
2014-Aug-27 02:33N 43°04' E 006°10'0 0.0
2014-Aug-27 01:33N 43°04' E 006°10'8 7.7
2014-Aug-27 00:33N 43°00' E 006°19'  

Dump ship's entire track history